createdAt,value
2019-03-27T00:01:40.779Z,38.12
2019-03-27T00:10:55.157Z,38.80
2019-03-27T00:32:54.102Z,41.90
2019-03-27T00:36:10.617Z,41.18
2019-03-27T00:46:47.596Z,42.13
2019-03-27T00:50:47.128Z,41.79
2019-03-27T00:53:47.561Z,41.80
2019-03-27T01:08:03.958Z,42.87
2019-03-27T01:11:50.920Z,42.86
2019-03-27T01:15:21.358Z,42.58
2019-03-27T01:17:56.829Z,42.44
2019-03-27T01:20:31.932Z,41.83
2019-03-27T01:23:05.517Z,40.50
2019-03-27T01:25:43.590Z,40.38
2019-03-27T01:28:23.313Z,40.53
2019-03-27T01:31:18.085Z,40.66
2019-03-27T01:34:17.957Z,40.37
2019-03-27T01:37:02.228Z,40.41
2019-03-27T01:39:42.677Z,40.65
2019-03-27T01:42:27.841Z,40.50
2019-03-27T01:45:22.578Z,40.80
2019-03-27T01:48:00.404Z,40.63
2019-03-27T01:50:55.644Z,41.03
2019-03-27T01:54:06.615Z,41.05
2019-03-27T01:56:56.011Z,40.99
2019-03-27T02:02:53.286Z,41.38
2019-03-27T02:05:35.574Z,41.67
2019-03-27T02:08:08.464Z,42.03
2019-03-27T02:11:00.029Z,42.21
2019-03-27T02:13:56.973Z,42.41
2019-03-27T02:16:39.656Z,42.52
2019-03-27T02:19:49.668Z,42.84
2019-03-27T02:22:39.814Z,43.04
2019-03-27T02:25:41.757Z,43.15
2019-03-27T02:28:53.361Z,43.04
2019-03-27T02:31:54.789Z,43.22
2019-03-27T02:34:58.216Z,43.39
2019-03-27T02:41:26.165Z,43.57
2019-03-27T02:47:52.604Z,43.74
2019-03-27T02:50:59.736Z,43.85
2019-03-27T02:58:30.302Z,43.69
2019-03-27T03:01:10.356Z,44.01
2019-03-27T03:08:07.366Z,43.98
2019-03-27T03:11:40.284Z,44.22
2019-03-27T03:14:28.641Z,44.48
2019-03-27T03:17:04.098Z,45.03
2019-03-27T03:19:40.760Z,45.01
2019-03-27T03:22:19.934Z,45.01
2019-03-27T03:25:11.925Z,45.07
2019-03-27T03:28:02.117Z,45.04
2019-03-27T03:30:38.100Z,45.13
2019-03-27T03:33:24.719Z,45.21
2019-03-27T03:36:04.451Z,45.24
2019-03-27T03:38:40.847Z,45.09
2019-03-27T03:41:15.889Z,45.23
2019-03-27T03:43:52.764Z,45.09
2019-03-27T03:47:08.316Z,44.87
2019-03-27T03:50:15.958Z,44.82
2019-03-27T03:53:33.105Z,45.01
2019-03-27T03:56:30.164Z,45.37
2019-03-27T03:59:55.895Z,45.54
2019-03-27T04:06:11.853Z,45.29
2019-03-27T04:08:56.681Z,45.52
2019-03-27T04:11:57.866Z,45.50
2019-03-27T04:15:08.554Z,45.46
2019-03-27T04:17:41.681Z,45.78
2019-03-27T04:20:15.633Z,46.03
2019-03-27T04:22:46.576Z,45.99
2019-03-27T04:25:17.640Z,46.01
2019-03-27T04:27:50.976Z,45.51
2019-03-27T04:30:27.131Z,45.00
2019-03-27T04:33:07.894Z,45.05
2019-03-27T04:35:52.678Z,45.57
2019-03-27T04:38:40.191Z,45.67
2019-03-27T04:41:49.130Z,46.25
2019-03-27T04:44:37.682Z,46.41
2019-03-27T04:47:32.413Z,46.51
2019-03-27T04:50:46.794Z,46.34
2019-03-27T04:53:22.899Z,46.61
2019-03-27T04:55:56.424Z,46.97
2019-03-27T04:58:31.110Z,46.74
2019-03-27T05:01:03.453Z,46.62
2019-03-27T05:03:41.272Z,46.59
2019-03-27T05:06:27.882Z,46.89
2019-03-27T05:09:05.205Z,46.89
2019-03-27T05:11:46.969Z,46.88
2019-03-27T05:14:18.940Z,46.79
2019-03-27T05:16:51.231Z,46.96
2019-03-27T05:19:22.340Z,46.92
2019-03-27T05:21:56.121Z,46.89
2019-03-27T05:24:28.278Z,47.05
2019-03-27T05:27:00.621Z,47.12
2019-03-27T05:29:34.695Z,46.78
2019-03-27T05:32:11.367Z,46.65
2019-03-27T05:34:49.632Z,46.51
2019-03-27T05:37:20.872Z,46.28
2019-03-27T05:39:52.320Z,46.06
2019-03-27T05:42:26.049Z,45.95
2019-03-27T05:45:06.995Z,45.73
2019-03-27T05:47:41.845Z,45.29
2019-03-27T05:50:13.891Z,44.96
2019-03-27T05:53:06.348Z,44.52
2019-03-27T05:55:47.111Z,43.91
2019-03-27T05:58:31.763Z,42.00
2019-03-27T06:01:03.721Z,40.62
2019-03-27T06:03:36.363Z,39.70
2019-03-27T06:06:27.277Z,39.43
2019-03-27T06:09:02.503Z,39.51
2019-03-27T06:11:38.329Z,38.56
2019-03-27T06:14:10.141Z,37.94
2019-03-27T06:16:41.814Z,37.33
2019-03-27T06:19:18.072Z,36.75
2019-03-27T06:21:50.787Z,36.24
2019-03-27T06:24:23.530Z,35.90
2019-03-27T06:26:57.847Z,35.61
2019-03-27T06:29:29.199Z,35.21
2019-03-27T06:32:01.965Z,34.91
2019-03-27T06:34:37.933Z,34.52
2019-03-27T06:37:11.647Z,34.52
2019-03-27T06:39:45.471Z,34.46
2019-03-27T06:42:18.606Z,33.25
2019-03-27T06:45:01.867Z,32.55
2019-03-27T06:47:39.323Z,32.45
2019-03-27T06:50:12.670Z,32.03
2019-03-27T06:52:45.719Z,32.00
2019-03-27T06:55:25.423Z,31.61
2019-03-27T06:58:01.445Z,31.25
2019-03-27T07:00:49.959Z,31.10
2019-03-27T07:03:29.131Z,30.17
2019-03-27T07:06:08.353Z,29.64
2019-03-27T07:08:53.977Z,28.53
2019-03-27T07:11:38.718Z,28.31
2019-03-27T07:18:00.604Z,27.57
2019-03-27T07:20:41.444Z,28.50
2019-03-27T07:23:27.687Z,28.39
2019-03-27T07:26:18.252Z,28.29
2019-03-27T07:29:10.493Z,28.29
2019-03-27T07:31:51.222Z,27.92
2019-03-27T07:34:33.240Z,27.93
2019-03-27T07:37:50.281Z,27.29
2019-03-27T07:40:35.455Z,27.05
2019-03-27T07:44:06.783Z,27.20
2019-03-27T07:47:27.585Z,27.16
2019-03-27T07:50:43.482Z,27.30
2019-03-27T07:53:18.277Z,27.48
2019-03-27T07:56:16.753Z,27.91
2019-03-27T07:58:49.023Z,28.69
2019-03-27T08:01:32.185Z,29.04
2019-03-27T08:04:23.732Z,28.87
2019-03-27T08:07:26.976Z,29.11
2019-03-27T08:10:18.573Z,29.11
2019-03-27T08:13:17.295Z,28.89
2019-03-27T08:16:04.302Z,28.52
2019-03-27T08:18:46.087Z,28.50
2019-03-27T08:22:17.284Z,28.61
2019-03-27T08:25:25.414Z,29.16
2019-03-27T08:35:42.466Z,28.09
2019-03-27T08:38:29.393Z,28.93
2019-03-27T08:48:52.491Z,29.25
2019-03-27T08:51:38.282Z,29.20
2019-03-27T08:54:54.943Z,29.50
2019-03-27T09:01:19.988Z,29.86
2019-03-27T09:04:20.392Z,30.11
2019-03-27T09:08:09.614Z,30.19
2019-03-27T09:11:04.598Z,30.06
2019-03-27T09:13:43.648Z,30.16
2019-03-27T09:16:48.249Z,30.32
2019-03-27T09:19:36.108Z,29.70
2019-03-27T09:22:34.784Z,29.93
2019-03-27T09:25:26.746Z,29.91
2019-03-27T09:28:05.779Z,30.04
2019-03-27T09:30:40.958Z,30.26
2019-03-27T09:33:18.257Z,29.74
2019-03-27T09:35:59.396Z,29.43
2019-03-27T09:38:37.121Z,29.26
2019-03-27T09:41:28.443Z,28.81
2019-03-27T09:44:24.676Z,28.25
2019-03-27T09:47:06.902Z,28.69
2019-03-27T09:57:32.298Z,29.12
2019-03-27T10:00:25.745Z,28.88
2019-03-27T10:04:13.563Z,28.37
2019-03-27T10:07:19.402Z,28.43
2019-03-27T10:09:55.303Z,28.54
2019-03-27T10:12:30.223Z,28.05
2019-03-27T10:15:18.174Z,28.05
2019-03-27T10:17:58.219Z,27.82
2019-03-27T10:20:59.388Z,25.56
2019-03-27T10:30:28.617Z,24.83
2019-03-27T10:33:31.514Z,25.23
2019-03-27T10:36:15.788Z,25.35
2019-03-27T10:39:09.395Z,24.83
2019-03-27T10:42:21.700Z,24.89
2019-03-27T10:45:25.519Z,24.47
2019-03-27T10:48:30.838Z,24.35
2019-03-27T10:51:22.154Z,24.30
2019-03-27T10:54:07.901Z,24.74
2019-03-27T10:57:47.152Z,25.11
2019-03-27T11:02:53.703Z,25.20
2019-03-27T11:05:54.514Z,25.32
2019-03-27T11:08:58.220Z,26.13
2019-03-27T11:11:54.786Z,26.99
2019-03-27T11:14:38.582Z,26.99
2019-03-27T11:17:39.563Z,26.55
2019-03-27T11:20:35.260Z,26.28
2019-03-27T11:23:42.954Z,26.34
2019-03-27T11:26:30.426Z,26.44
2019-03-27T11:29:26.109Z,26.31
2019-03-27T11:32:15.810Z,25.99
2019-03-27T11:35:15.345Z,25.98
2019-03-27T11:38:05.666Z,25.66
2019-03-27T11:40:52.024Z,24.95
2019-03-27T11:43:59.776Z,25.21
2019-03-27T11:46:52.303Z,24.35
2019-03-27T11:49:43.435Z,24.28
2019-03-27T11:52:53.338Z,24.28
2019-03-27T11:55:50.347Z,24.41
2019-03-27T11:58:45.321Z,24.41
2019-03-27T12:02:25.588Z,24.02
2019-03-27T12:12:42.292Z,23.81
2019-03-27T12:16:02.427Z,23.82
2019-03-27T12:18:34.678Z,23.71
2019-03-27T12:21:30.645Z,23.21
2019-03-27T12:24:14.398Z,23.34
2019-03-27T12:26:56.462Z,23.97
2019-03-27T12:33:08.296Z,25.02
2019-03-27T12:36:00.821Z,24.92
2019-03-27T12:38:47.804Z,25.56
2019-03-27T12:44:54.140Z,25.26
2019-03-27T12:47:59.957Z,25.28
2019-03-27T12:50:53.150Z,24.63
2019-03-27T12:53:40.102Z,24.77
2019-03-27T12:59:25.754Z,24.51
2019-03-27T13:05:20.690Z,25.47
2019-03-27T13:08:16.279Z,25.58
2019-03-27T13:14:13.871Z,24.73
2019-03-27T13:23:26.491Z,22.29
2019-03-27T13:29:32.702Z,21.65
2019-03-27T13:32:17.047Z,21.65
2019-03-27T13:35:00.449Z,21.12
2019-03-27T13:37:50.109Z,20.61
2019-03-27T13:40:52.593Z,20.76
2019-03-27T13:43:55.142Z,20.98
2019-03-27T13:46:59.983Z,21.03
2019-03-27T13:49:57.301Z,21.57
2019-03-27T13:52:44.341Z,21.78
2019-03-27T13:55:27.627Z,22.54
2019-03-27T13:58:15.252Z,23.23
2019-03-27T14:01:29.347Z,23.69
2019-03-27T14:04:32.540Z,23.76
2019-03-27T14:07:30.655Z,23.68
2019-03-27T14:10:30.209Z,23.71
2019-03-27T14:13:24.988Z,23.92
2019-03-27T14:16:42.806Z,24.21
2019-03-27T14:22:34.662Z,23.46
2019-03-27T14:25:37.484Z,23.03
2019-03-27T14:28:34.375Z,22.57
2019-03-27T14:31:42.440Z,22.60
2019-03-27T14:34:46.452Z,22.55
2019-03-27T14:37:44.151Z,22.79
2019-03-27T14:40:59.378Z,23.20
2019-03-27T14:43:52.136Z,23.24
2019-03-27T14:46:48.876Z,23.09
2019-03-27T14:49:20.236Z,23.31
2019-03-27T14:53:44.525Z,23.31
2019-03-27T14:55:54.216Z,24.00
2019-03-27T14:58:37.899Z,24.55
2019-03-27T15:04:48.009Z,24.69
2019-03-27T15:07:31.105Z,24.82
2019-03-27T15:10:12.623Z,24.80
2019-03-27T15:16:12.525Z,25.06
2019-03-27T15:19:23.552Z,25.10
2019-03-27T15:22:43.004Z,25.22
2019-03-27T15:25:42.417Z,25.08
2019-03-27T15:28:28.911Z,25.00
2019-03-27T15:31:24.427Z,25.20
2019-03-27T15:34:22.435Z,25.39
2019-03-27T15:37:09.251Z,25.14
2019-03-27T15:39:53.452Z,25.00
2019-03-27T15:43:17.892Z,25.42
2019-03-27T15:45:53.302Z,25.43
2019-03-27T15:48:33.011Z,24.82
2019-03-27T15:51:10.123Z,24.78
2019-03-27T15:53:41.254Z,24.78
2019-03-27T15:56:16.248Z,24.51
2019-03-27T15:58:50.152Z,24.64
2019-03-27T16:01:31.388Z,23.82
2019-03-27T16:04:05.226Z,23.90
2019-03-27T16:06:40.094Z,24.19
2019-03-27T16:09:17.688Z,24.32
2019-03-27T16:12:17.492Z,24.73
2019-03-27T16:15:00.364Z,25.11
2019-03-27T16:17:57.419Z,25.13
2019-03-27T16:20:32.012Z,25.29
2019-03-27T16:23:11.260Z,25.84
2019-03-27T16:25:43.141Z,25.90
2019-03-27T16:28:23.163Z,26.01
2019-03-27T16:30:56.643Z,26.31
2019-03-27T16:33:30.187Z,26.36
2019-03-27T16:36:09.337Z,26.52
2019-03-27T16:38:44.531Z,26.24
2019-03-27T16:41:42.013Z,26.46
2019-03-27T16:44:15.342Z,26.73
2019-03-27T16:46:46.796Z,26.85
2019-03-27T16:49:20.875Z,26.54
2019-03-27T16:51:56.271Z,26.39
2019-03-27T16:54:33.375Z,26.59
2019-03-27T16:57:04.258Z,26.65
2019-03-27T16:59:40.163Z,27.04
2019-03-27T17:02:12.558Z,27.06
2019-03-27T17:04:50.328Z,27.20
2019-03-27T17:07:23.511Z,27.48
2019-03-27T17:09:56.129Z,27.50
2019-03-27T17:12:31.445Z,27.18
2019-03-27T17:15:14.843Z,27.27
2019-03-27T17:17:57.382Z,27.48
2019-03-27T17:20:30.842Z,27.56
2019-03-27T17:23:01.898Z,27.76
2019-03-27T17:25:39.975Z,27.89
2019-03-27T17:28:13.655Z,27.92
2019-03-27T17:31:07.027Z,27.95
2019-03-27T17:33:38.620Z,27.98
2019-03-27T17:36:09.252Z,28.23
2019-03-27T17:39:31.229Z,28.60
2019-03-27T17:41:53.950Z,28.87
2019-03-27T17:44:37.105Z,29.32
2019-03-27T17:47:24.245Z,29.64
2019-03-27T17:50:00.561Z,29.92
2019-03-27T17:52:31.105Z,29.97
2019-03-27T17:55:13.247Z,30.15
2019-03-27T17:57:56.796Z,30.31
2019-03-27T18:01:04.183Z,30.39
2019-03-27T18:03:42.902Z,30.90
2019-03-27T18:06:14.307Z,31.52
2019-03-27T18:08:52.716Z,31.87
2019-03-27T18:11:24.133Z,31.60
2019-03-27T18:14:13.623Z,31.52
2019-03-27T18:16:50.979Z,31.82
2019-03-27T18:19:33.664Z,32.21
2019-03-27T18:22:12.344Z,32.41
2019-03-27T18:25:03.704Z,32.17
2019-03-27T18:27:34.411Z,32.28
2019-03-27T18:30:08.980Z,32.89
2019-03-27T18:32:44.701Z,33.34
2019-03-27T18:35:54.605Z,33.37
2019-03-27T18:38:26.871Z,33.73
2019-03-27T18:41:15.936Z,34.11
2019-03-27T18:44:12.643Z,34.55
2019-03-27T18:46:50.968Z,34.73
2019-03-27T18:49:28.366Z,34.89
2019-03-27T18:52:02.776Z,34.74
2019-03-27T18:54:45.154Z,34.81
2019-03-27T18:57:27.186Z,34.89
2019-03-27T18:59:59.271Z,34.71
2019-03-27T19:02:48.261Z,34.85
2019-03-27T19:05:29.385Z,35.01
2019-03-27T19:08:03.625Z,35.18
2019-03-27T19:10:50.115Z,35.32
2019-03-27T19:13:25.707Z,35.47
2019-03-27T19:16:06.134Z,35.53
2019-03-27T19:18:40.592Z,35.62
2019-03-27T19:21:27.638Z,35.79
2019-03-27T19:24:16.307Z,36.03
2019-03-27T19:27:20.487Z,36.16
2019-03-27T19:30:07.858Z,35.92
2019-03-27T19:32:49.059Z,35.65
2019-03-27T19:35:22.932Z,35.99
2019-03-27T19:37:59.252Z,36.27
2019-03-27T19:40:36.308Z,36.39
2019-03-27T19:43:27.139Z,36.60
2019-03-27T19:46:18.212Z,36.68
2019-03-27T19:49:01.476Z,36.40
2019-03-27T19:51:36.172Z,36.66
2019-03-27T19:54:27.067Z,36.80
2019-03-27T19:56:48.114Z,36.98
2019-03-27T19:59:47.028Z,37.39
2019-03-27T20:02:17.392Z,37.39
2019-03-27T20:04:55.146Z,37.17
2019-03-27T20:07:35.966Z,37.10
2019-03-27T20:10:03.709Z,36.96
2019-03-27T20:12:49.884Z,36.95
2019-03-27T20:15:59.664Z,37.09
2019-03-27T20:18:49.216Z,37.35
2019-03-27T20:21:44.156Z,37.51
2019-03-27T20:24:45.098Z,37.72
2019-03-27T20:30:14.340Z,37.56
2019-03-27T20:33:01.401Z,37.88
2019-03-27T20:35:51.668Z,37.83
2019-03-27T20:38:32.814Z,37.84
2019-03-27T20:41:07.633Z,37.84
2019-03-27T20:43:40.363Z,38.47
2019-03-27T20:46:29.155Z,38.65
2019-03-27T20:48:56.553Z,38.64
2019-03-27T20:51:35.576Z,38.54
2019-03-27T20:54:13.269Z,38.69
2019-03-27T20:56:54.675Z,38.65
2019-03-27T20:59:29.448Z,38.76
2019-03-27T21:09:48.135Z,39.53
2019-03-27T21:13:22.787Z,39.53
2019-03-27T21:17:25.338Z,39.13
2019-03-27T21:21:16.300Z,39.13
2019-03-27T21:27:35.545Z,39.28
2019-03-27T21:33:51.315Z,38.92
2019-03-27T21:36:26.889Z,39.41
2019-03-27T21:39:15.922Z,39.41
2019-03-27T21:41:50.907Z,39.19
2019-03-27T21:44:30.530Z,39.35
2019-03-27T21:47:04.552Z,39.65
2019-03-27T21:49:37.622Z,39.61
2019-03-27T21:52:14.577Z,39.89
2019-03-27T21:54:46.495Z,40.21
2019-03-27T21:57:29.584Z,40.16
2019-03-27T22:00:01.161Z,40.35
2019-03-27T22:02:37.212Z,40.32
2019-03-27T22:05:12.239Z,40.14
2019-03-27T22:08:29.459Z,40.24
2019-03-27T22:14:38.793Z,40.73
2019-03-27T22:17:18.207Z,40.53
2019-03-27T22:20:05.084Z,40.67
2019-03-27T22:22:42.017Z,40.56
2019-03-27T22:25:35.247Z,40.50
2019-03-27T22:27:57.267Z,40.50
2019-03-27T22:30:33.326Z,40.43
2019-03-27T22:33:15.843Z,40.44
2019-03-27T22:35:53.435Z,40.69
2019-03-27T22:38:34.961Z,41.01
2019-03-27T22:41:21.054Z,40.89
2019-03-27T22:43:55.701Z,41.01
2019-03-27T22:46:27.663Z,41.08
2019-03-27T22:49:02.749Z,40.99
2019-03-27T22:51:39.564Z,40.96
2019-03-27T22:54:10.867Z,40.97
2019-03-27T22:56:41.701Z,41.11
2019-03-27T22:59:16.725Z,41.48
2019-03-27T23:02:03.559Z,41.73
2019-03-27T23:04:39.103Z,41.93
2019-03-27T23:07:21.418Z,41.77
2019-03-27T23:09:58.857Z,42.07
2019-03-27T23:12:33.135Z,41.96
2019-03-27T23:15:21.937Z,41.98
2019-03-27T23:18:03.221Z,42.01
2019-03-27T23:20:38.184Z,41.96
2019-03-27T23:23:20.830Z,42.09
2019-03-27T23:26:02.855Z,42.10
2019-03-27T23:28:38.022Z,41.98
2019-03-27T23:31:16.470Z,42.04
2019-03-27T23:33:50.728Z,42.09
2019-03-27T23:36:26.909Z,42.04
2019-03-27T23:39:01.995Z,42.07
2019-03-27T23:41:34.318Z,42.21
2019-03-27T23:44:10.026Z,42.37
2019-03-27T23:46:43.896Z,42.42
2019-03-27T23:49:39.431Z,42.34
2019-03-27T23:52:12.042Z,42.22
2019-03-27T23:54:48.325Z,42.21
2019-03-27T23:57:35.264Z,42.34
